createdAt,value
2024-03-14T00:00:29.238Z,1007.63
2024-03-14T00:01:08.139Z,1007.63
2024-03-14T00:02:29.113Z,1007.65
2024-03-14T00:03:08.137Z,1007.67
2024-03-14T00:04:08.065Z,1007.69
2024-03-14T00:05:29.110Z,1007.68
2024-03-14T00:06:08.196Z,1007.71
2024-03-14T00:07:29.005Z,1007.71
2024-03-14T00:08:07.922Z,1007.73
2024-03-14T00:09:07.979Z,1007.67
2024-03-14T00:10:28.858Z,1007.67
2024-03-14T00:11:07.945Z,1007.70
2024-03-14T00:12:28.873Z,1007.67
2024-03-14T00:13:07.817Z,1007.66
2024-03-14T00:14:07.719Z,1007.66
2024-03-14T00:15:28.866Z,1007.65
2024-03-14T00:16:07.646Z,1007.66
2024-03-14T00:17:28.760Z,1007.65
2024-03-14T00:18:07.683Z,1007.67
2024-03-14T00:19:07.622Z,1007.63
2024-03-14T00:20:28.511Z,1007.66
2024-03-14T00:21:07.553Z,1007.67
2024-03-14T00:22:28.517Z,1007.71
2024-03-14T00:23:07.449Z,1007.75
2024-03-14T00:24:07.386Z,1007.68
2024-03-14T00:25:28.377Z,1007.71
2024-03-14T00:26:07.306Z,1007.70
2024-03-14T00:27:28.325Z,1007.72
2024-03-14T00:28:07.225Z,1007.72
2024-03-14T00:29:07.241Z,1007.69
2024-03-14T00:30:28.230Z,1007.58
2024-03-14T00:31:07.123Z,1007.49
2024-03-14T00:32:28.168Z,1007.50
2024-03-14T00:33:07.086Z,1007.56
2024-03-14T00:34:07.021Z,1007.54
2024-03-14T00:35:28.014Z,1007.48
2024-03-14T00:36:07.071Z,1007.48
2024-03-14T00:37:27.961Z,1007.53
2024-03-14T00:38:06.873Z,1007.54
2024-03-14T00:39:06.963Z,1007.51
2024-03-14T00:40:27.825Z,1007.50
2024-03-14T00:41:06.817Z,1007.53
2024-03-14T00:42:27.844Z,1007.57
2024-03-14T00:43:06.699Z,1007.53
2024-03-14T00:44:06.677Z,1007.51
2024-03-14T00:45:27.764Z,1007.54
2024-03-14T00:46:06.601Z,1007.54
2024-03-14T00:47:27.607Z,1007.47
2024-03-14T00:48:06.570Z,1007.47
2024-03-14T00:49:06.580Z,1007.48
2024-03-14T00:50:27.482Z,1007.48
2024-03-14T00:51:06.526Z,1007.44
2024-03-14T00:52:27.478Z,1007.53
2024-03-14T00:53:06.378Z,1007.45
2024-03-14T00:54:06.340Z,1007.48
2024-03-14T00:55:27.352Z,1007.48
2024-03-14T00:56:06.264Z,1007.45
2024-03-14T00:57:27.292Z,1007.50
2024-03-14T00:58:06.166Z,1007.47
2024-03-14T00:59:06.194Z,1007.45
2024-03-14T01:00:27.108Z,1007.41
2024-03-14T01:01:06.170Z,1007.40
2024-03-14T01:02:27.036Z,1007.38
2024-03-14T01:03:06.072Z,1007.38
2024-03-14T01:04:05.963Z,1007.40
2024-03-14T01:05:26.990Z,1007.37
2024-03-14T01:06:05.929Z,1007.35
2024-03-14T01:07:26.881Z,1007.37
2024-03-14T01:08:05.827Z,1007.39
2024-03-14T01:09:05.853Z,1007.37
2024-03-14T01:10:26.746Z,1007.36
2024-03-14T01:11:05.803Z,1007.36
2024-03-14T01:12:26.836Z,1007.35
2024-03-14T01:13:05.654Z,1007.35
2024-03-14T01:14:05.575Z,1007.35
2024-03-14T01:15:26.638Z,1007.35
2024-03-14T01:16:05.575Z,1007.35
2024-03-14T01:17:26.514Z,1007.32
2024-03-14T01:18:05.616Z,1007.31
2024-03-14T01:19:05.502Z,1007.31
2024-03-14T01:20:26.990Z,1007.32
2024-03-14T01:21:05.423Z,1007.31
2024-03-14T01:22:26.319Z,1007.32
2024-03-14T01:23:05.363Z,1007.30
2024-03-14T01:24:05.358Z,1007.28
2024-03-14T01:25:26.246Z,1007.29
2024-03-14T01:26:05.298Z,1007.32
2024-03-14T01:27:26.231Z,1007.35
2024-03-14T01:28:05.155Z,1007.35
2024-03-14T01:29:05.132Z,1007.32
2024-03-14T01:30:26.120Z,1007.32
2024-03-14T01:31:05.052Z,1007.31
2024-03-14T01:32:26.012Z,1007.28
2024-03-14T01:33:05.024Z,1007.30
2024-03-14T01:34:04.945Z,1007.31
2024-03-14T01:35:25.910Z,1007.31
2024-03-14T01:36:04.879Z,1007.31
2024-03-14T01:37:25.805Z,1007.30
2024-03-14T01:38:04.766Z,1007.32
2024-03-14T01:39:04.806Z,1007.32
2024-03-14T01:40:25.672Z,1007.33
2024-03-14T01:41:04.696Z,1007.27
2024-03-14T01:42:25.648Z,1007.29
2024-03-14T01:43:04.676Z,1007.22
2024-03-14T01:44:04.558Z,1007.24
2024-03-14T01:45:25.646Z,1007.21
2024-03-14T01:46:04.468Z,1007.22
2024-03-14T01:47:25.480Z,1007.19
2024-03-14T01:48:04.520Z,1007.17
2024-03-14T01:49:04.556Z,1007.15
2024-03-14T01:50:25.396Z,1007.15
2024-03-14T01:51:04.377Z,1007.10
2024-03-14T01:52:25.256Z,1007.13
2024-03-14T01:53:04.237Z,1007.12
2024-03-14T01:54:04.228Z,1007.09
2024-03-14T01:55:25.157Z,1007.06
2024-03-14T01:56:04.123Z,1007.08
2024-03-14T01:57:25.223Z,1007.08
2024-03-14T01:58:04.108Z,1007.03
2024-03-14T01:59:04.039Z,1007.06
2024-03-14T02:00:25.117Z,1007.03
2024-03-14T02:01:04.004Z,1007.03
2024-03-14T02:02:24.965Z,1007.01
2024-03-14T02:03:03.970Z,1007.01
2024-03-14T02:04:03.859Z,1006.99
2024-03-14T02:05:24.842Z,1007.00
2024-03-14T02:06:03.972Z,1007.00
2024-03-14T02:07:24.784Z,1007.00
2024-03-14T02:08:03.768Z,1007.00
2024-03-14T02:09:03.760Z,1007.05
2024-03-14T02:10:24.674Z,1006.97
2024-03-14T02:11:03.606Z,1007.01
2024-03-14T02:12:24.751Z,1006.97
2024-03-14T02:13:03.518Z,1006.95
2024-03-14T02:14:03.527Z,1006.94
2024-03-14T02:15:24.625Z,1006.93
2024-03-14T02:16:03.447Z,1006.88
2024-03-14T02:17:24.367Z,1006.92
2024-03-14T02:18:03.467Z,1006.90
2024-03-14T02:19:03.324Z,1006.93
2024-03-14T02:20:24.270Z,1006.93
2024-03-14T02:21:03.269Z,1006.95
2024-03-14T02:22:24.179Z,1006.92
2024-03-14T02:23:03.163Z,1006.90
2024-03-14T02:24:03.182Z,1006.89
2024-03-14T02:25:24.094Z,1006.89
2024-03-14T02:26:03.097Z,1006.83
2024-03-14T02:27:24.032Z,1006.83
2024-03-14T02:28:02.942Z,1006.85
2024-03-14T02:29:02.970Z,1006.82
2024-03-14T02:30:23.950Z,1006.81
2024-03-14T02:31:02.946Z,1006.78
2024-03-14T02:32:23.842Z,1006.79
2024-03-14T02:33:02.926Z,1006.80
2024-03-14T02:34:02.816Z,1006.78
2024-03-14T02:35:23.807Z,1006.77
2024-03-14T02:36:02.706Z,1006.80
2024-03-14T02:37:23.705Z,1006.78
2024-03-14T02:38:02.631Z,1006.75
2024-03-14T02:39:02.683Z,1006.76
2024-03-14T02:40:23.541Z,1006.75
2024-03-14T02:41:02.562Z,1006.74
2024-03-14T02:42:23.594Z,1006.73
2024-03-14T02:43:02.427Z,1006.72
2024-03-14T02:44:02.455Z,1006.68
2024-03-14T02:45:23.472Z,1006.67
2024-03-14T02:46:02.314Z,1006.69
2024-03-14T02:47:23.336Z,1006.66
2024-03-14T02:48:02.329Z,1006.68
2024-03-14T02:49:02.383Z,1006.65
2024-03-14T02:50:23.180Z,1006.64
2024-03-14T02:51:02.209Z,1006.66
2024-03-14T02:52:23.156Z,1006.65
2024-03-14T02:53:02.121Z,1006.70
2024-03-14T02:54:02.131Z,1006.66
2024-03-14T02:55:23.001Z,1006.66
2024-03-14T02:56:02.009Z,1006.63
2024-03-14T02:57:23.065Z,1006.65
2024-03-14T02:58:01.932Z,1006.68
2024-03-14T02:59:01.931Z,1006.67
2024-03-14T03:00:22.851Z,1006.65
2024-03-14T03:01:01.861Z,1006.63
2024-03-14T03:02:22.744Z,1006.65
2024-03-14T03:03:01.761Z,1006.64
2024-03-14T03:04:01.725Z,1006.65
2024-03-14T03:05:22.642Z,1006.61
2024-03-14T03:06:01.658Z,1006.64
2024-03-14T03:07:22.562Z,1006.62
2024-03-14T03:08:01.543Z,1006.60
2024-03-14T03:09:01.613Z,1006.61
2024-03-14T03:10:22.509Z,1006.62
2024-03-14T03:11:01.426Z,1006.63
2024-03-14T03:12:22.440Z,1006.60
2024-03-14T03:13:01.437Z,1006.63
2024-03-14T03:14:01.349Z,1006.61
2024-03-14T03:15:22.371Z,1006.60
2024-03-14T03:16:01.250Z,1006.54
2024-03-14T03:17:22.227Z,1006.53
2024-03-14T03:18:01.284Z,1006.51
2024-03-14T03:19:01.248Z,1006.49
2024-03-14T03:20:22.115Z,1006.48
2024-03-14T03:21:01.194Z,1006.49
2024-03-14T03:22:22.058Z,1006.47
2024-03-14T03:23:01.066Z,1006.50
2024-03-14T03:24:01.051Z,1006.52
2024-03-14T03:25:21.985Z,1006.50
2024-03-14T03:26:00.895Z,1006.48
2024-03-14T03:27:21.947Z,1006.47
2024-03-14T03:28:00.843Z,1006.46
2024-03-14T03:29:00.790Z,1006.46
2024-03-14T03:30:21.874Z,1006.47
2024-03-14T03:31:00.719Z,1006.43
2024-03-14T03:32:21.735Z,1006.44
2024-03-14T03:33:00.735Z,1006.43
2024-03-14T03:34:00.644Z,1006.38
2024-03-14T03:35:22.458Z,1006.37
2024-03-14T03:36:00.619Z,1006.38
2024-03-14T03:37:21.494Z,1006.37
2024-03-14T03:38:00.455Z,1006.39
2024-03-14T03:39:00.496Z,1006.40
2024-03-14T03:40:21.402Z,1006.38
2024-03-14T03:41:00.380Z,1006.38
2024-03-14T03:42:21.411Z,1006.41
2024-03-14T03:43:00.327Z,1006.37
2024-03-14T03:44:00.261Z,1006.39
2024-03-14T03:45:21.281Z,1006.37
2024-03-14T03:46:00.190Z,1006.38
2024-03-14T03:47:21.164Z,1006.32
2024-03-14T03:48:00.300Z,1006.27
2024-03-14T03:49:00.201Z,1006.29
2024-03-14T03:50:21.054Z,1006.26
2024-03-14T03:51:00.061Z,1006.23
2024-03-14T03:52:20.980Z,1006.18
2024-03-14T03:52:59.975Z,1006.19
2024-03-14T03:53:59.908Z,1006.16
2024-03-14T03:55:20.845Z,1006.17
2024-03-14T03:55:59.837Z,1006.15
2024-03-14T03:57:20.893Z,1006.14
2024-03-14T03:57:59.809Z,1006.15
2024-03-14T03:58:59.777Z,1006.17
2024-03-14T04:00:20.697Z,1006.18
2024-03-14T04:00:59.696Z,1006.17
2024-03-14T04:02:20.584Z,1006.17
2024-03-14T04:02:59.615Z,1006.19
2024-03-14T04:03:59.576Z,1006.17
2024-03-14T04:05:20.500Z,1006.21
2024-03-14T04:05:59.534Z,1006.19
2024-03-14T04:07:20.407Z,1006.19
2024-03-14T04:07:59.454Z,1006.21
2024-03-14T04:08:59.524Z,1006.21
2024-03-14T04:10:20.282Z,1006.22
2024-03-14T04:10:59.428Z,1006.21
2024-03-14T04:12:20.265Z,1006.27
2024-03-14T04:12:59.212Z,1006.26
2024-03-14T04:13:59.412Z,1006.22
2024-03-14T04:15:20.194Z,1006.22
2024-03-14T04:15:59.051Z,1006.18
2024-03-14T04:17:20.072Z,1006.16
2024-03-14T04:17:59.313Z,1006.16
2024-03-14T04:18:59.148Z,1006.14
2024-03-14T04:20:19.949Z,1006.18
2024-03-14T04:20:59.035Z,1006.20
2024-03-14T04:22:19.869Z,1006.19
2024-03-14T04:22:58.899Z,1006.22
2024-03-14T04:23:58.825Z,1006.20
2024-03-14T04:25:19.791Z,1006.18
2024-03-14T04:25:58.710Z,1006.18
2024-03-14T04:27:19.715Z,1006.18
2024-03-14T04:27:58.636Z,1006.19
2024-03-14T04:28:58.637Z,1006.20
2024-03-14T04:30:19.639Z,1006.17
2024-03-14T04:30:58.566Z,1006.14
2024-03-14T04:32:19.554Z,1006.17
2024-03-14T04:32:58.604Z,1006.13
2024-03-14T04:33:58.530Z,1006.09
2024-03-14T04:35:19.438Z,1006.14
2024-03-14T04:35:58.408Z,1006.15
2024-03-14T04:37:19.307Z,1006.09
2024-03-14T04:37:58.331Z,1006.09
2024-03-14T04:38:58.327Z,1006.08
2024-03-14T04:40:19.272Z,1006.08
2024-03-14T04:40:58.173Z,1006.07
2024-03-14T04:42:19.165Z,1006.06
2024-03-14T04:42:58.121Z,1006.03
2024-03-14T04:43:58.048Z,1006.01
2024-03-14T04:45:19.046Z,1006.03
2024-03-14T04:45:58.032Z,1006.02
2024-03-14T04:47:18.992Z,1006.01
2024-03-14T04:47:58.048Z,1006.02
2024-03-14T04:48:57.958Z,1005.99
2024-03-14T04:50:18.830Z,1005.99
2024-03-14T04:50:57.856Z,1005.98
2024-03-14T04:52:18.758Z,1006.00
2024-03-14T04:52:57.780Z,1006.01
2024-03-14T04:53:57.745Z,1006.02
2024-03-14T04:55:18.985Z,1005.99
2024-03-14T04:55:57.635Z,1005.97
2024-03-14T04:57:18.685Z,1005.91
2024-03-14T04:57:57.548Z,1005.97
2024-03-14T04:58:57.547Z,1005.96
2024-03-14T05:00:18.519Z,1005.97
2024-03-14T05:00:57.527Z,1005.98
2024-03-14T05:02:18.397Z,1006.00
2024-03-14T05:02:57.434Z,1006.03
2024-03-14T05:03:57.369Z,1006.03
2024-03-14T05:05:18.282Z,1006.02
2024-03-14T05:05:57.315Z,1006.00
2024-03-14T05:07:18.255Z,1006.00
2024-03-14T05:07:57.192Z,1005.99
2024-03-14T05:08:57.235Z,1005.99
2024-03-14T05:10:18.117Z,1005.99
2024-03-14T05:10:57.157Z,1005.95
2024-03-14T05:12:18.047Z,1005.94
2024-03-14T05:12:57.042Z,1005.90
2024-03-14T05:13:56.953Z,1005.90
2024-03-14T05:15:18.439Z,1005.91
2024-03-14T05:15:56.991Z,1005.95
2024-03-14T05:17:17.892Z,1005.89
2024-03-14T05:17:56.914Z,1005.91
2024-03-14T05:18:56.829Z,1005.90
2024-03-14T05:20:18.022Z,1005.91
2024-03-14T05:20:56.792Z,1005.93
2024-03-14T05:22:17.732Z,1005.91
2024-03-14T05:22:56.643Z,1005.93
2024-03-14T05:23:56.630Z,1005.92
2024-03-14T05:25:17.565Z,1005.92
2024-03-14T05:25:56.522Z,1005.88
2024-03-14T05:27:17.535Z,1005.88
2024-03-14T05:27:56.479Z,1005.91
2024-03-14T05:28:56.434Z,1005.85
2024-03-14T05:30:17.407Z,1005.88
2024-03-14T05:30:56.345Z,1005.84
2024-03-14T05:32:17.332Z,1005.85
2024-03-14T05:32:56.366Z,1005.80
2024-03-14T05:33:56.266Z,1005.82
2024-03-14T05:35:17.257Z,1005.77
2024-03-14T05:35:56.161Z,1005.74
2024-03-14T05:37:17.159Z,1005.79
2024-03-14T05:37:56.083Z,1005.80
2024-03-14T05:38:56.109Z,1005.84
2024-03-14T05:40:17.009Z,1005.84
2024-03-14T05:40:55.978Z,1005.84
2024-03-14T05:42:17.008Z,1005.88
2024-03-14T05:42:55.980Z,1005.90
2024-03-14T05:43:55.874Z,1005.87
2024-03-14T05:45:16.874Z,1005.87
2024-03-14T05:45:55.838Z,1005.90
2024-03-14T05:47:16.835Z,1005.87
2024-03-14T05:47:55.816Z,1005.90
2024-03-14T05:48:55.761Z,1005.91
2024-03-14T05:50:16.720Z,1005.89
2024-03-14T05:50:55.643Z,1005.92
2024-03-14T05:52:16.710Z,1005.88
2024-03-14T05:52:55.527Z,1005.89
2024-03-14T05:53:55.538Z,1005.88
2024-03-14T05:55:16.502Z,1005.86
2024-03-14T05:55:55.460Z,1005.92
2024-03-14T05:57:16.586Z,1005.86
2024-03-14T05:57:55.340Z,1005.88
2024-03-14T05:58:55.353Z,1005.88
2024-03-14T06:00:16.337Z,1005.89
2024-03-14T06:00:55.292Z,1005.86
2024-03-14T06:02:16.182Z,1005.88
2024-03-14T06:02:55.190Z,1005.90
2024-03-14T06:03:55.661Z,1005.93
2024-03-14T06:05:16.104Z,1005.91
2024-03-14T06:05:55.163Z,1005.92
2024-03-14T06:07:17.052Z,1005.93
2024-03-14T06:07:55.027Z,1005.91
2024-03-14T06:08:54.985Z,1005.88
2024-03-14T06:10:15.925Z,1005.88
2024-03-14T06:10:54.867Z,1005.87
2024-03-14T06:12:15.839Z,1005.90
2024-03-14T06:12:54.818Z,1005.89
2024-03-14T06:13:54.735Z,1005.89
2024-03-14T06:15:15.814Z,1005.89
2024-03-14T06:15:54.677Z,1005.89
2024-03-14T06:17:15.655Z,1005.87
2024-03-14T06:17:54.746Z,1005.87
2024-03-14T06:18:54.712Z,1005.88
2024-03-14T06:20:15.557Z,1005.89
2024-03-14T06:20:54.519Z,1005.88
2024-03-14T06:22:15.472Z,1005.86
2024-03-14T06:22:54.562Z,1005.84
2024-03-14T06:23:54.450Z,1005.84
2024-03-14T06:25:15.407Z,1005.84
2024-03-14T06:25:54.318Z,1005.86
2024-03-14T06:27:15.373Z,1005.79
2024-03-14T06:27:54.250Z,1005.76
2024-03-14T06:28:54.271Z,1005.78
2024-03-14T06:30:17.631Z,1005.83
2024-03-14T06:30:54.261Z,1005.82
2024-03-14T06:32:15.125Z,1005.83
2024-03-14T06:32:54.155Z,1005.82
2024-03-14T06:33:54.156Z,1005.82
2024-03-14T06:35:14.991Z,1005.79
2024-03-14T06:35:54.517Z,1005.80
2024-03-14T06:37:14.905Z,1005.83
2024-03-14T06:37:53.875Z,1005.76
2024-03-14T06:38:53.886Z,1005.78
2024-03-14T06:40:14.780Z,1005.78
2024-03-14T06:40:53.753Z,1005.80
2024-03-14T06:42:14.705Z,1005.81
2024-03-14T06:42:53.747Z,1005.82
2024-03-14T06:43:53.658Z,1005.85
2024-03-14T06:45:14.772Z,1005.83
2024-03-14T06:45:53.605Z,1005.85
2024-03-14T06:47:14.543Z,1005.85
2024-03-14T06:47:53.639Z,1005.88
2024-03-14T06:48:53.514Z,1005.84
2024-03-14T06:50:14.586Z,1005.86
2024-03-14T06:50:53.446Z,1005.85
2024-03-14T06:52:14.364Z,1005.85
2024-03-14T06:52:53.303Z,1005.88
2024-03-14T06:53:53.394Z,1005.89
2024-03-14T06:55:14.430Z,1005.86
2024-03-14T06:55:53.250Z,1005.89
2024-03-14T06:57:14.239Z,1005.86
2024-03-14T06:57:53.145Z,1005.87
2024-03-14T06:58:53.103Z,1005.84
2024-03-14T07:00:14.674Z,1005.83
2024-03-14T07:00:53.109Z,1005.82
2024-03-14T07:02:14.044Z,1005.81
2024-03-14T07:02:53.014Z,1005.79
2024-03-14T07:03:52.994Z,1005.80
2024-03-14T07:05:13.894Z,1005.82
2024-03-14T07:05:52.917Z,1005.82
2024-03-14T07:07:13.807Z,1005.82
2024-03-14T07:07:52.804Z,1005.79
2024-03-14T07:08:52.801Z,1005.80
2024-03-14T07:10:13.659Z,1005.79
2024-03-14T07:10:52.679Z,1005.81
2024-03-14T07:12:13.668Z,1005.76
2024-03-14T07:12:52.621Z,1005.79
2024-03-14T07:13:52.577Z,1005.78
2024-03-14T07:15:13.540Z,1005.82
2024-03-14T07:15:52.482Z,1005.83
2024-03-14T07:17:13.451Z,1005.84
2024-03-14T07:17:53.624Z,1005.86
2024-03-14T07:18:52.579Z,1005.88
2024-03-14T07:20:13.327Z,1005.81
2024-03-14T07:20:52.314Z,1005.82
2024-03-14T07:22:13.243Z,1005.85
2024-03-14T07:22:52.260Z,1005.90
2024-03-14T07:23:52.280Z,1005.89
2024-03-14T07:25:13.939Z,1005.91
2024-03-14T07:25:52.125Z,1005.93
2024-03-14T07:27:13.138Z,1005.91
2024-03-14T07:27:52.056Z,1005.93
2024-03-14T07:28:52.051Z,1005.92
2024-03-14T07:30:13.019Z,1005.96
2024-03-14T07:30:51.941Z,1005.95
2024-03-14T07:32:12.898Z,1005.95
2024-03-14T07:32:51.971Z,1005.97
2024-03-14T07:33:51.838Z,1005.95
2024-03-14T07:35:15.711Z,1005.93
2024-03-14T07:35:51.780Z,1005.93
2024-03-14T07:37:12.754Z,1005.92
2024-03-14T07:37:51.735Z,1005.93
2024-03-14T07:38:51.759Z,1005.94
2024-03-14T07:40:12.671Z,1005.96
2024-03-14T07:40:51.586Z,1005.91
2024-03-14T07:42:12.643Z,1005.93
2024-03-14T07:42:51.479Z,1005.92
2024-03-14T07:44:00.316Z,1005.95
2024-03-14T07:45:12.512Z,1005.97
2024-03-14T07:45:51.393Z,1005.95
2024-03-14T07:47:12.388Z,1005.96
2024-03-14T07:47:51.378Z,1005.96
2024-03-14T07:48:51.345Z,1005.96
2024-03-14T07:50:12.243Z,1005.96
2024-03-14T07:50:51.250Z,1005.97
2024-03-14T07:52:12.231Z,1005.97
2024-03-14T07:52:51.146Z,1005.98
2024-03-14T07:53:51.098Z,1006.01
2024-03-14T07:55:12.093Z,1005.97
2024-03-14T07:55:51.031Z,1006.00
2024-03-14T07:57:12.087Z,1005.97
2024-03-14T07:57:50.964Z,1006.03
2024-03-14T07:58:50.916Z,1006.04
2024-03-14T08:00:11.960Z,1006.02
2024-03-14T08:00:50.993Z,1006.06
2024-03-14T08:02:11.851Z,1006.08
2024-03-14T08:02:50.813Z,1006.10
2024-03-14T08:03:50.749Z,1006.10
2024-03-14T08:05:11.729Z,1006.05
2024-03-14T08:05:50.738Z,1006.07
2024-03-14T08:07:11.628Z,1006.03
2024-03-14T08:07:58.208Z,1006.08
2024-03-14T08:08:50.651Z,1006.04
2024-03-14T08:10:11.562Z,1006.06
2024-03-14T08:10:50.514Z,1006.07
2024-03-14T08:12:11.692Z,1006.07
2024-03-14T08:12:50.405Z,1006.05
2024-03-14T08:13:50.448Z,1006.08
2024-03-14T08:15:11.387Z,1006.15
2024-03-14T08:15:50.382Z,1006.07
2024-03-14T08:17:11.293Z,1006.12
2024-03-14T08:17:50.367Z,1006.12
2024-03-14T08:18:50.240Z,1006.12
2024-03-14T08:20:11.195Z,1006.15
2024-03-14T08:20:50.153Z,1006.10
2024-03-14T08:22:11.113Z,1006.13
2024-03-14T08:22:50.126Z,1006.11
2024-03-14T08:23:50.134Z,1006.08
2024-03-14T08:25:11.044Z,1006.09
2024-03-14T08:25:50.027Z,1006.12
2024-03-14T08:27:11.027Z,1006.09
2024-03-14T08:27:49.918Z,1006.10
2024-03-14T08:28:49.919Z,1006.12
2024-03-14T08:30:10.897Z,1006.09
2024-03-14T08:30:49.830Z,1006.06
2024-03-14T08:32:10.755Z,1006.03
2024-03-14T08:32:49.829Z,1006.06
2024-03-14T08:33:49.772Z,1006.03
2024-03-14T08:35:10.641Z,1006.03
2024-03-14T08:35:49.660Z,1006.00
2024-03-14T08:37:10.620Z,1006.02
2024-03-14T08:37:49.515Z,1006.03
2024-03-14T08:38:49.585Z,1006.05
2024-03-14T08:40:10.473Z,1006.03
2024-03-14T08:40:49.617Z,1006.04
2024-03-14T08:42:10.415Z,1006.04
2024-03-14T08:42:53.023Z,1006.04
2024-03-14T08:43:49.329Z,1006.02
2024-03-14T08:45:10.454Z,1006.03
2024-03-14T08:45:49.341Z,1005.99
2024-03-14T08:47:10.236Z,1005.98
2024-03-14T08:47:49.256Z,1005.98
2024-03-14T08:48:49.227Z,1006.00
2024-03-14T08:50:10.133Z,1006.05
2024-03-14T08:50:49.098Z,1006.01
2024-03-14T08:52:10.050Z,1006.03
2024-03-14T08:52:49.016Z,1006.02
2024-03-14T08:53:48.977Z,1006.07
2024-03-14T08:55:09.950Z,1006.06
2024-03-14T08:55:48.912Z,1006.06
2024-03-14T08:57:09.908Z,1006.05
2024-03-14T08:57:48.899Z,1006.04
2024-03-14T08:58:48.838Z,1006.09
2024-03-14T09:00:09.867Z,1006.04
2024-03-14T09:00:48.935Z,1006.06
2024-03-14T09:02:09.738Z,1006.05
2024-03-14T09:02:48.696Z,1006.04
2024-03-14T09:03:48.732Z,1006.03
2024-03-14T09:05:09.627Z,1006.02
2024-03-14T09:05:48.567Z,1006.04
2024-03-14T09:07:09.551Z,1005.98
2024-03-14T09:07:48.526Z,1005.96
2024-03-14T09:08:48.522Z,1005.99
2024-03-14T09:10:09.476Z,1006.01
2024-03-14T09:10:48.456Z,1005.95
2024-03-14T09:12:09.441Z,1005.98
2024-03-14T09:12:48.355Z,1006.00
2024-03-14T09:13:48.314Z,1005.97
2024-03-14T09:15:09.309Z,1005.97
2024-03-14T09:15:48.276Z,1005.94
2024-03-14T09:17:09.216Z,1005.96
2024-03-14T09:17:48.177Z,1005.97
2024-03-14T09:18:48.152Z,1005.98
2024-03-14T09:20:09.076Z,1005.96
2024-03-14T09:20:48.084Z,1005.94
2024-03-14T09:22:08.998Z,1005.93
2024-03-14T09:22:48.002Z,1005.93
2024-03-14T09:23:48.913Z,1005.96
2024-03-14T09:25:08.935Z,1005.93
2024-03-14T09:25:47.885Z,1005.90
2024-03-14T09:27:08.922Z,1005.91
2024-03-14T09:27:47.806Z,1005.94
2024-03-14T09:28:47.813Z,1005.93
2024-03-14T09:30:08.809Z,1005.94
2024-03-14T09:30:47.947Z,1005.91
2024-03-14T09:32:08.653Z,1005.91
2024-03-14T09:32:47.692Z,1005.88
2024-03-14T09:33:47.672Z,1005.89
2024-03-14T09:35:08.597Z,1005.89
2024-03-14T09:35:47.897Z,1005.93
2024-03-14T09:37:08.526Z,1005.92
2024-03-14T09:37:47.508Z,1005.88
2024-03-14T09:38:47.511Z,1005.92
2024-03-14T09:40:08.413Z,1005.89
2024-03-14T09:40:47.366Z,1005.88
2024-03-14T09:42:08.423Z,1005.92
2024-03-14T09:42:47.437Z,1005.89
2024-03-14T09:43:47.298Z,1005.89
2024-03-14T09:45:08.211Z,1005.86
2024-03-14T09:45:47.264Z,1005.85
2024-03-14T09:47:08.375Z,1005.85
2024-03-14T09:47:47.151Z,1005.81
2024-03-14T09:48:47.239Z,1005.86
2024-03-14T09:50:08.041Z,1005.82
2024-03-14T09:50:46.998Z,1005.84
2024-03-14T09:52:08.024Z,1005.81
2024-03-14T09:52:46.977Z,1005.81
2024-03-14T09:53:46.922Z,1005.77
2024-03-14T09:55:07.937Z,1005.78
2024-03-14T09:55:46.876Z,1005.80
2024-03-14T09:57:07.849Z,1005.79
2024-03-14T09:57:46.786Z,1005.76
2024-03-14T09:58:47.647Z,1005.82
2024-03-14T10:00:07.846Z,1005.81
2024-03-14T10:00:46.747Z,1005.83
2024-03-14T10:02:07.702Z,1005.79
2024-03-14T10:02:46.668Z,1005.80
2024-03-14T10:03:46.600Z,1005.78
2024-03-14T10:05:07.577Z,1005.76
2024-03-14T10:05:46.516Z,1005.78
2024-03-14T10:07:08.087Z,1005.75
2024-03-14T10:07:46.614Z,1005.78
2024-03-14T10:08:46.428Z,1005.73
2024-03-14T10:10:07.497Z,1005.74
2024-03-14T10:10:46.388Z,1005.76
2024-03-14T10:12:07.435Z,1005.73
2024-03-14T10:12:46.405Z,1005.73
2024-03-14T10:13:46.253Z,1005.76
2024-03-14T10:15:07.294Z,1005.71
2024-03-14T10:15:46.280Z,1005.77
2024-03-14T10:17:07.170Z,1005.81
2024-03-14T10:17:46.198Z,1005.81
2024-03-14T10:18:46.151Z,1005.83
2024-03-14T10:20:07.068Z,1005.83
2024-03-14T10:20:46.032Z,1005.85
2024-03-14T10:22:06.977Z,1005.83
2024-03-14T10:22:45.958Z,1005.81
2024-03-14T10:23:46.028Z,1005.80
2024-03-14T10:25:06.891Z,1005.73
2024-03-14T10:25:45.835Z,1005.65
2024-03-14T10:27:06.809Z,1005.62
2024-03-14T10:27:53.629Z,1005.61
2024-03-14T10:28:45.795Z,1005.61
2024-03-14T10:30:06.726Z,1005.57
2024-03-14T10:30:45.725Z,1005.53
2024-03-14T10:32:06.721Z,1005.49
2024-03-14T10:32:45.644Z,1005.57
2024-03-14T10:33:45.920Z,1005.54
2024-03-14T10:35:06.642Z,1005.49
2024-03-14T10:35:45.510Z,1005.52
2024-03-14T10:37:06.714Z,1005.50
2024-03-14T10:37:45.456Z,1005.48
2024-03-14T10:38:45.687Z,1005.45
2024-03-14T10:40:06.485Z,1005.43
2024-03-14T10:40:45.423Z,1005.44
2024-03-14T10:42:06.361Z,1005.42
2024-03-14T10:42:45.413Z,1005.48
2024-03-14T10:43:45.351Z,1005.49
2024-03-14T10:45:06.871Z,1005.52
2024-03-14T10:45:45.330Z,1005.56
2024-03-14T10:47:06.238Z,1005.61
2024-03-14T10:47:45.231Z,1005.66
2024-03-14T10:48:45.268Z,1005.61
2024-03-14T10:50:06.088Z,1005.64
2024-03-14T10:50:45.104Z,1005.64
2024-03-14T10:52:06.024Z,1005.58
2024-03-14T10:52:45.047Z,1005.58
2024-03-14T10:53:45.054Z,1005.58
2024-03-14T10:55:05.997Z,1005.59
2024-03-14T10:55:44.896Z,1005.63
2024-03-14T10:57:05.942Z,1005.56
2024-03-14T10:57:44.904Z,1005.51
2024-03-14T10:58:44.846Z,1005.50
2024-03-14T11:00:05.887Z,1005.53
2024-03-14T11:00:44.895Z,1005.51
2024-03-14T11:02:05.857Z,1005.48
2024-03-14T11:02:44.658Z,1005.51
2024-03-14T11:03:44.778Z,1005.53
2024-03-14T11:05:05.679Z,1005.48
2024-03-14T11:05:44.742Z,1005.50
2024-03-14T11:07:05.663Z,1005.51
2024-03-14T11:07:44.578Z,1005.50
2024-03-14T11:08:44.758Z,1005.42
2024-03-14T11:10:05.547Z,1005.41
2024-03-14T11:10:44.509Z,1005.49
2024-03-14T11:12:05.543Z,1005.49
2024-03-14T11:12:44.457Z,1005.52
2024-03-14T11:13:44.417Z,1005.55
2024-03-14T11:15:05.569Z,1005.54
2024-03-14T11:15:44.411Z,1005.51
2024-03-14T11:17:05.389Z,1005.46
2024-03-14T11:17:44.412Z,1005.52
2024-03-14T11:18:44.280Z,1005.50
2024-03-14T11:20:05.306Z,1005.41
2024-03-14T11:20:44.203Z,1005.44
2024-03-14T11:22:05.137Z,1005.47
2024-03-14T11:22:44.339Z,1005.48
2024-03-14T11:23:44.140Z,1005.40
2024-03-14T11:25:05.046Z,1005.38
2024-03-14T11:25:44.140Z,1005.40
2024-03-14T11:27:05.037Z,1005.34
2024-03-14T11:27:44.077Z,1005.41
2024-03-14T11:28:43.973Z,1005.38
2024-03-14T11:30:05.523Z,1005.36
2024-03-14T11:30:43.949Z,1005.42
2024-03-14T11:32:04.896Z,1005.39
2024-03-14T11:32:43.951Z,1005.37
2024-03-14T11:33:43.918Z,1005.36
2024-03-14T11:35:04.790Z,1005.33
2024-03-14T11:35:43.793Z,1005.30
2024-03-14T11:37:04.785Z,1005.32
2024-03-14T11:37:43.736Z,1005.33
2024-03-14T11:38:43.766Z,1005.25
2024-03-14T11:40:04.695Z,1005.26
2024-03-14T11:40:43.647Z,1005.28
2024-03-14T11:42:04.667Z,1005.25
2024-03-14T11:42:43.713Z,1005.25
2024-03-14T11:43:43.573Z,1005.20
2024-03-14T11:45:04.619Z,1005.25
2024-03-14T11:45:43.671Z,1005.21
2024-03-14T11:47:04.476Z,1005.09
2024-03-14T11:47:43.635Z,1005.05
2024-03-14T11:48:43.484Z,1005.14
2024-03-14T11:50:04.417Z,1005.11
2024-03-14T11:50:43.433Z,1005.06
2024-03-14T11:52:04.366Z,1005.09
2024-03-14T11:52:43.660Z,1005.08
2024-03-14T11:53:43.291Z,1005.13
2024-03-14T11:55:04.286Z,1004.99
2024-03-14T11:55:47.752Z,1004.99
2024-03-14T11:57:04.263Z,1004.93
2024-03-14T11:57:43.169Z,1004.93
2024-03-14T11:58:43.832Z,1004.91
2024-03-14T12:00:08.117Z,1004.89
2024-03-14T12:00:43.154Z,1004.96
2024-03-14T12:02:08.629Z,1004.88
2024-03-14T12:02:43.061Z,1004.94
2024-03-14T12:03:43.017Z,1004.80
2024-03-14T12:05:04.041Z,1004.85